createdAt,value
2023-04-03T00:00:53.012Z,17.50
2023-04-03T00:03:22.409Z,17.33
2023-04-03T00:05:50.546Z,17.70
2023-04-03T00:08:18.677Z,18.33
2023-04-03T00:10:46.713Z,17.90
2023-04-03T00:13:14.775Z,17.60
2023-04-03T00:15:43.514Z,17.60
2023-04-03T00:18:11.863Z,17.60
2023-04-03T00:20:41.290Z,17.80
2023-04-03T00:23:09.253Z,17.67
2023-04-03T00:25:37.624Z,17.57
2023-04-03T00:28:06.529Z,17.37
2023-04-03T00:30:35.098Z,17.27
2023-04-03T00:33:03.910Z,18.30
2023-04-03T00:35:32.086Z,17.23
2023-04-03T00:38:01.584Z,17.37
2023-04-03T00:40:30.001Z,17.37
2023-04-03T00:43:00.517Z,17.30
2023-04-03T00:45:33.092Z,17.50
2023-04-03T00:48:03.251Z,17.60
2023-04-03T00:50:32.373Z,17.53
2023-04-03T00:53:02.398Z,17.53
2023-04-03T00:55:31.282Z,17.40
2023-04-03T00:57:59.706Z,18.20
2023-04-03T01:00:28.322Z,18.00
2023-04-03T01:02:56.636Z,18.50
2023-04-03T01:05:24.722Z,18.03
2023-04-03T01:07:55.004Z,18.13
2023-04-03T01:10:26.509Z,17.77
2023-04-03T01:12:54.846Z,18.23
2023-04-03T01:15:24.853Z,17.83
2023-04-03T01:17:57.349Z,18.10
2023-04-03T01:20:51.935Z,17.97
2023-04-03T01:23:35.057Z,18.07
2023-04-03T01:26:05.041Z,17.97
2023-04-03T01:28:37.068Z,17.93
2023-04-03T01:31:13.167Z,17.70
2023-04-03T01:33:42.908Z,18.03
2023-04-03T01:36:14.441Z,18.03
2023-04-03T01:38:42.399Z,17.87
2023-04-03T01:41:10.443Z,18.50
2023-04-03T01:43:38.456Z,17.97
2023-04-03T01:46:06.499Z,18.07
2023-04-03T01:48:34.518Z,18.37
2023-04-03T01:51:03.878Z,18.33
2023-04-03T01:53:31.826Z,18.13
2023-04-03T01:55:59.841Z,18.17
2023-04-03T01:58:27.841Z,18.60
2023-04-03T02:00:56.156Z,18.40
2023-04-03T02:03:24.452Z,18.03
2023-04-03T02:05:52.537Z,17.93
2023-04-03T02:08:21.907Z,18.00
2023-04-03T02:10:50.671Z,18.00
2023-04-03T02:13:19.034Z,18.23
2023-04-03T02:15:47.368Z,18.00
2023-04-03T02:18:15.883Z,18.30
2023-04-03T02:20:43.981Z,18.63
2023-04-03T02:23:12.331Z,18.23
2023-04-03T02:25:41.696Z,18.30
2023-04-03T02:28:09.659Z,17.90
2023-04-03T02:30:37.905Z,18.07
2023-04-03T02:33:06.141Z,18.07
2023-04-03T02:35:34.246Z,17.73
2023-04-03T02:38:02.282Z,18.07
2023-04-03T02:40:30.280Z,17.73
2023-04-03T02:42:59.631Z,36.70
2023-04-03T02:45:27.563Z,38.23
2023-04-03T02:47:55.575Z,37.77
2023-04-03T02:50:23.559Z,38.53
2023-04-03T02:52:51.627Z,39.10
2023-04-03T02:55:19.782Z,37.90
2023-04-03T02:57:47.723Z,38.47
2023-04-03T03:00:17.569Z,39.07
2023-04-03T03:02:45.673Z,39.03
2023-04-03T03:05:13.692Z,38.40
2023-04-03T03:07:41.658Z,39.00
2023-04-03T03:10:10.417Z,38.10
2023-04-03T03:12:38.446Z,37.57
2023-04-03T03:15:07.369Z,37.73
2023-04-03T03:17:37.458Z,38.17
2023-04-03T03:20:06.019Z,38.33
2023-04-03T03:22:34.460Z,38.90
2023-04-03T03:25:03.222Z,38.03
2023-04-03T03:27:31.213Z,39.70
2023-04-03T03:29:59.160Z,37.30
2023-04-03T03:32:27.209Z,37.67
2023-04-03T03:34:56.500Z,36.70
2023-04-03T03:37:24.502Z,37.00
2023-04-03T03:39:52.484Z,37.67
2023-04-03T03:42:20.452Z,38.10
2023-04-03T03:44:48.468Z,38.03
2023-04-03T03:47:16.659Z,37.50
2023-04-03T03:49:44.639Z,38.00
2023-04-03T03:52:14.014Z,98.33
2023-04-03T03:54:42.031Z,16.23
2023-04-03T03:57:10.068Z,16.80
2023-04-03T03:59:38.099Z,17.27
2023-04-03T04:02:06.094Z,16.97
2023-04-03T04:04:34.120Z,16.70
2023-04-03T04:07:02.473Z,16.40
2023-04-03T04:09:31.823Z,15.50
2023-04-03T04:11:59.977Z,16.97
2023-04-03T04:14:27.988Z,16.10
2023-04-03T04:16:55.971Z,15.90
2023-04-03T04:19:23.945Z,15.90
2023-04-03T04:21:52.340Z,16.60
2023-04-03T04:24:20.321Z,16.40
2023-04-03T04:26:50.001Z,15.77
2023-04-03T04:29:18.126Z,16.20
2023-04-03T04:31:46.121Z,16.07
2023-04-03T04:34:14.320Z,34.17
2023-04-03T04:36:42.347Z,38.63
2023-04-03T04:39:10.805Z,37.70
2023-04-03T04:41:38.820Z,45.90
2023-04-03T04:44:09.435Z,40.00
2023-04-03T04:46:37.414Z,39.10
2023-04-03T04:49:05.621Z,41.93
2023-04-03T04:51:41.164Z,39.50
2023-04-03T04:54:16.878Z,40.90
2023-04-03T04:56:44.852Z,39.37
2023-04-03T04:59:14.476Z,37.30
2023-04-03T05:01:42.488Z,39.23
2023-04-03T05:04:13.551Z,18.27
2023-04-03T05:06:41.580Z,18.20
2023-04-03T05:09:10.902Z,18.43
2023-04-03T05:11:38.849Z,17.07
2023-04-03T05:14:07.623Z,37.13
2023-04-03T05:16:37.289Z,49.67
2023-04-03T05:19:05.414Z,38.17
2023-04-03T05:21:34.061Z,38.30
2023-04-03T05:24:03.676Z,39.20
2023-04-03T05:26:32.108Z,38.43
2023-04-03T05:29:00.511Z,45.70
2023-04-03T05:31:30.673Z,47.23
2023-04-03T05:34:00.732Z,47.30
2023-04-03T05:36:28.843Z,40.23
2023-04-03T05:38:58.118Z,43.67
2023-04-03T05:41:26.661Z,43.47
2023-04-03T05:43:54.677Z,46.47
2023-04-03T05:46:23.121Z,42.73
2023-04-03T05:48:51.536Z,42.37
2023-04-03T05:51:24.084Z,21.33
2023-04-03T05:54:01.912Z,23.33
2023-04-03T05:56:29.977Z,22.77
2023-04-03T05:58:57.980Z,22.37
2023-04-03T06:01:25.997Z,23.13
2023-04-03T06:03:55.236Z,22.20
2023-04-03T06:06:24.745Z,20.40
2023-04-03T06:08:52.982Z,20.80
2023-04-03T06:11:22.553Z,22.17
2023-04-03T06:13:50.615Z,20.07
2023-04-03T06:16:20.538Z,21.80
2023-04-03T06:18:48.504Z,19.73
2023-04-03T06:21:16.524Z,22.20
2023-04-03T06:23:46.125Z,22.50
2023-04-03T06:26:14.119Z,22.77
2023-04-03T06:28:42.080Z,22.30
2023-04-03T06:31:10.237Z,21.10
2023-04-03T06:33:38.190Z,27.77
2023-04-03T06:36:07.643Z,23.67
2023-04-03T06:38:36.232Z,24.50
2023-04-03T06:41:05.955Z,46.37
2023-04-03T06:43:34.788Z,47.47
2023-04-03T06:46:02.992Z,47.93
2023-04-03T06:48:31.625Z,45.77
2023-04-03T06:50:59.673Z,45.07
2023-04-03T06:53:27.648Z,48.93
2023-04-03T06:55:55.659Z,45.87
2023-04-03T06:58:25.210Z,43.20
2023-04-03T07:00:53.259Z,43.17
2023-04-03T07:03:21.332Z,46.90
2023-04-03T07:05:49.402Z,49.90
2023-04-03T07:08:17.429Z,52.57
2023-04-03T07:10:46.263Z,53.17
2023-04-03T07:13:14.196Z,57.03
2023-04-03T07:15:43.761Z,29.77
2023-04-03T07:18:11.832Z,25.87
2023-04-03T07:20:41.225Z,22.70
2023-04-03T07:23:09.250Z,21.73
2023-04-03T07:25:37.574Z,21.07
2023-04-03T07:28:05.856Z,21.40
2023-04-03T07:30:33.889Z,21.80
2023-04-03T07:33:03.247Z,26.63
2023-04-03T07:35:31.330Z,23.70
2023-04-03T07:37:59.420Z,22.30
2023-04-03T07:40:27.640Z,19.27
2023-04-03T07:42:57.427Z,20.30
2023-04-03T07:45:25.848Z,23.03
2023-04-03T07:47:53.929Z,20.50
2023-04-03T07:50:23.323Z,22.13
2023-04-03T07:52:53.781Z,21.27
2023-04-03T07:55:21.731Z,21.33
2023-04-03T07:57:49.698Z,22.10
2023-04-03T08:00:21.716Z,21.67
2023-04-03T08:02:52.601Z,24.17
2023-04-03T08:05:22.074Z,36.97
2023-04-03T08:07:51.442Z,24.23
2023-04-03T08:10:19.484Z,38.20
2023-04-03T08:12:48.584Z,33.20
2023-04-03T08:15:17.167Z,33.63
2023-04-03T08:17:45.247Z,31.40
2023-04-03T08:20:13.636Z,32.33
2023-04-03T08:22:41.664Z,30.50
2023-04-03T08:25:11.618Z,28.47
2023-04-03T08:27:39.635Z,27.70
2023-04-03T08:30:09.967Z,24.23
2023-04-03T08:32:38.229Z,36.60
2023-04-03T08:35:07.553Z,21.00
2023-04-03T08:37:38.569Z,21.47
2023-04-03T08:40:08.854Z,21.70
2023-04-03T08:42:50.473Z,20.43
2023-04-03T08:45:22.349Z,20.13
2023-04-03T08:48:00.404Z,40.70
2023-04-03T08:50:33.632Z,19.43
2023-04-03T08:53:03.187Z,20.30
2023-04-03T08:55:36.326Z,19.90
2023-04-03T08:58:08.973Z,20.70
2023-04-03T09:00:45.521Z,21.77
2023-04-03T09:03:16.069Z,19.30
2023-04-03T09:05:49.858Z,19.20
2023-04-03T09:08:27.060Z,21.70
2023-04-03T09:11:06.612Z,19.93
2023-04-03T09:13:42.635Z,18.37
2023-04-03T09:16:23.053Z,20.13
2023-04-03T09:18:59.349Z,20.57
2023-04-03T09:21:34.476Z,20.97
2023-04-03T09:24:05.115Z,20.07
2023-04-03T09:26:38.080Z,19.30
2023-04-03T09:29:09.858Z,21.50
2023-04-03T09:31:41.175Z,20.87
2023-04-03T09:34:19.931Z,19.83
2023-04-03T09:36:50.379Z,19.03
2023-04-03T09:39:21.529Z,20.40
2023-04-03T09:42:04.610Z,22.33
2023-04-03T09:44:36.501Z,19.53
2023-04-03T09:47:21.654Z,19.70
2023-04-03T09:49:49.617Z,19.83
2023-04-03T09:52:24.634Z,21.73
2023-04-03T09:54:52.751Z,21.50
2023-04-03T09:57:21.652Z,20.30
2023-04-03T10:00:01.725Z,18.07
2023-04-03T10:02:41.562Z,18.17
2023-04-03T10:05:28.751Z,17.70
2023-04-03T10:08:10.750Z,18.20
2023-04-03T10:10:41.524Z,17.97
2023-04-03T10:13:20.158Z,17.70
2023-04-03T10:15:55.841Z,17.77
2023-04-03T10:18:34.796Z,17.87
2023-04-03T10:21:14.556Z,17.17
2023-04-03T10:23:55.798Z,18.67
2023-04-03T10:26:34.965Z,17.70
2023-04-03T10:29:09.416Z,17.60
2023-04-03T10:31:48.082Z,17.63
2023-04-03T10:34:25.442Z,18.00
2023-04-03T10:37:00.033Z,16.80
2023-04-03T10:39:37.314Z,16.83
2023-04-03T10:42:17.633Z,17.13
2023-04-03T10:45:02.470Z,17.60
2023-04-03T10:47:39.692Z,17.20
2023-04-03T10:50:24.452Z,17.20
2023-04-03T10:52:59.672Z,17.60
2023-04-03T10:55:37.074Z,17.77
2023-04-03T10:58:06.058Z,17.10
2023-04-03T11:00:40.983Z,17.13
2023-04-03T11:03:15.952Z,17.83
2023-04-03T11:05:46.576Z,19.00
2023-04-03T11:08:23.690Z,18.77
2023-04-03T11:10:53.526Z,16.70
2023-04-03T11:13:26.388Z,16.73
2023-04-03T11:15:56.516Z,20.10
2023-04-03T11:18:34.702Z,17.60
2023-04-03T11:21:06.459Z,18.43
2023-04-03T11:23:48.953Z,17.60
2023-04-03T11:26:19.887Z,18.03
2023-04-03T11:28:47.961Z,20.80
2023-04-03T11:31:28.794Z,20.80
2023-04-03T11:34:10.082Z,19.43
2023-04-03T11:36:44.622Z,19.50
2023-04-03T11:39:22.561Z,20.50
2023-04-03T11:41:53.421Z,19.80
2023-04-03T11:44:35.506Z,19.00
2023-04-03T11:47:04.727Z,19.33
2023-04-03T11:50:00.839Z,18.60
2023-04-03T11:52:58.221Z,19.10
2023-04-03T11:55:56.347Z,20.10
2023-04-03T11:58:25.678Z,19.35
2023-04-03T12:00:57.704Z,19.10
2023-04-03T12:03:50.704Z,19.00
2023-04-03T12:06:50.916Z,16.83
2023-04-03T12:09:28.488Z,20.83
2023-04-03T12:11:58.578Z,18.90
2023-04-03T12:14:28.425Z,17.65
2023-04-03T12:16:58.920Z,17.75
2023-04-03T12:19:42.538Z,28.70
2023-04-03T12:22:18.063Z,19.48
2023-04-03T12:24:49.382Z,20.27
2023-04-03T12:27:27.178Z,18.75
2023-04-03T12:30:08.996Z,19.50
2023-04-03T12:32:56.222Z,19.75
2023-04-03T12:35:32.605Z,20.55
2023-04-03T12:38:37.517Z,19.67
2023-04-03T12:41:23.751Z,20.20
2023-04-03T12:44:07.561Z,18.83
2023-04-03T12:46:41.691Z,18.35
2023-04-03T12:49:25.617Z,19.92
2023-04-03T12:51:54.182Z,19.25
2023-04-03T12:54:28.072Z,20.10
2023-04-03T12:57:11.880Z,19.38
2023-04-03T12:59:40.524Z,19.80
2023-04-03T13:02:21.783Z,20.25
2023-04-03T13:04:50.672Z,19.00
2023-04-03T13:07:28.380Z,21.75
2023-04-03T13:10:02.941Z,23.00
2023-04-03T13:12:32.369Z,20.63
2023-04-03T13:15:05.141Z,23.55
2023-04-03T13:17:35.155Z,24.38
2023-04-03T13:20:13.827Z,23.48
2023-04-03T13:22:49.161Z,21.80
2023-04-03T13:25:21.923Z,21.75
2023-04-03T13:27:52.228Z,25.50
2023-04-03T13:30:27.189Z,22.75
2023-04-03T13:32:56.241Z,21.20
2023-04-03T13:35:34.180Z,21.20
2023-04-03T13:38:04.325Z,24.77
2023-04-03T13:40:45.131Z,23.27
2023-04-03T13:43:21.771Z,22.55
2023-04-03T13:45:59.519Z,21.02
2023-04-03T13:48:28.180Z,22.10
2023-04-03T13:51:00.495Z,22.60
2023-04-03T13:53:29.591Z,22.30
2023-04-03T13:56:09.168Z,23.77
2023-04-03T13:58:38.730Z,22.85
2023-04-03T14:01:13.141Z,23.30
2023-04-03T14:03:46.174Z,22.70
2023-04-03T14:06:16.431Z,21.98
2023-04-03T14:08:45.216Z,27.20
2023-04-03T14:11:20.174Z,27.20
2023-04-03T14:13:49.197Z,29.50
2023-04-03T14:16:20.188Z,22.58
2023-04-03T14:18:48.858Z,26.10
2023-04-03T14:21:19.617Z,26.05
2023-04-03T14:23:48.191Z,27.08
2023-04-03T14:26:19.691Z,23.70
2023-04-03T14:28:48.986Z,20.95
2023-04-03T14:31:18.743Z,24.50
2023-04-03T14:33:47.250Z,24.75
2023-04-03T14:36:17.301Z,21.67
2023-04-03T14:38:46.631Z,25.50
2023-04-03T14:41:17.175Z,25.65
2023-04-03T14:43:47.888Z,24.10
2023-04-03T14:46:17.725Z,21.00
2023-04-03T14:48:46.816Z,18.10
2023-04-03T14:51:16.672Z,17.80
2023-04-03T14:53:48.757Z,17.85
2023-04-03T14:56:19.801Z,17.67
2023-04-03T14:58:51.446Z,17.55
2023-04-03T15:01:20.025Z,17.77
2023-04-03T15:03:48.192Z,17.80
2023-04-03T15:06:17.238Z,17.58
2023-04-03T15:08:46.110Z,17.50
2023-04-03T15:11:14.389Z,16.88
2023-04-03T15:13:43.110Z,17.15
2023-04-03T15:16:17.851Z,17.10
2023-04-03T15:18:46.929Z,16.90
2023-04-03T15:21:15.098Z,16.90
2023-04-03T15:23:43.849Z,17.30
2023-04-03T15:26:12.072Z,18.35
2023-04-03T15:28:42.140Z,24.33
2023-04-03T15:31:10.866Z,19.50
2023-04-03T15:33:40.329Z,17.60
2023-04-03T15:36:17.608Z,17.60
2023-04-03T15:38:56.838Z,17.85
2023-04-03T15:41:24.973Z,20.42
2023-04-03T15:43:52.950Z,17.48
2023-04-03T15:46:21.085Z,17.80
2023-04-03T15:48:50.640Z,18.00
2023-04-03T15:51:18.627Z,17.70
2023-04-03T15:53:46.674Z,17.90
2023-04-03T15:56:14.718Z,17.10
2023-04-03T15:58:42.675Z,17.50
2023-04-03T16:01:13.121Z,17.95
2023-04-03T16:03:46.285Z,18.00
2023-04-03T16:06:16.947Z,17.55
2023-04-03T16:08:45.089Z,17.87
2023-04-03T16:11:13.047Z,17.10
2023-04-03T16:13:41.612Z,16.67
2023-04-03T16:16:09.734Z,17.20
2023-04-03T16:18:38.058Z,16.30
2023-04-03T16:21:08.925Z,16.13
2023-04-03T16:23:38.418Z,25.92
2023-04-03T16:26:06.582Z,16.30
2023-04-03T16:28:34.700Z,16.43
2023-04-03T16:31:03.578Z,17.20
2023-04-03T16:33:32.081Z,16.73
2023-04-03T16:36:00.078Z,16.53
2023-04-03T16:38:28.343Z,16.60
2023-04-03T16:41:00.385Z,16.47
2023-04-03T16:43:28.371Z,16.60
2023-04-03T16:45:56.440Z,16.80
2023-04-03T16:48:24.462Z,16.57
2023-04-03T16:50:54.289Z,16.53
2023-04-03T16:53:22.601Z,16.73
2023-04-03T16:55:50.745Z,16.40
2023-04-03T16:58:22.459Z,16.43
2023-04-03T17:00:52.189Z,17.00
2023-04-03T17:03:20.238Z,16.63
2023-04-03T17:05:49.551Z,16.60
2023-04-03T17:08:19.227Z,16.60
2023-04-03T17:10:48.730Z,16.60
2023-04-03T17:13:19.097Z,16.67
2023-04-03T17:15:47.224Z,16.67
2023-04-03T17:18:15.558Z,16.63
2023-04-03T17:20:43.606Z,16.17
2023-04-03T17:23:11.647Z,16.20
2023-04-03T17:25:39.944Z,16.23
2023-04-03T17:28:08.017Z,17.13
2023-04-03T17:30:37.338Z,17.07
2023-04-03T17:33:05.470Z,15.90
2023-04-03T17:35:33.532Z,16.50
2023-04-03T17:38:01.590Z,16.27
2023-04-03T17:40:29.794Z,17.23
2023-04-03T17:42:57.857Z,16.97
2023-04-03T17:45:25.884Z,16.97
2023-04-03T17:47:55.208Z,17.23
2023-04-03T17:50:23.262Z,17.20
2023-04-03T17:52:51.475Z,17.00
2023-04-03T17:55:19.527Z,17.30
2023-04-03T17:57:47.508Z,17.00
2023-04-03T18:00:16.920Z,16.63
2023-04-03T18:02:45.105Z,17.30
2023-04-03T18:05:14.686Z,17.50
2023-04-03T18:07:42.885Z,17.00
2023-04-03T18:10:11.598Z,17.50
2023-04-03T18:12:41.040Z,17.90
2023-04-03T18:15:10.135Z,17.20
2023-04-03T18:17:38.167Z,17.20
2023-04-03T18:20:07.380Z,17.43
2023-04-03T18:22:36.993Z,16.10
2023-04-03T18:25:05.805Z,17.20
2023-04-03T18:27:33.916Z,17.97
2023-04-03T18:30:08.326Z,18.80
2023-04-03T18:32:36.453Z,17.20
2023-04-03T18:35:05.388Z,18.17
2023-04-03T18:37:33.397Z,17.57
2023-04-03T18:40:02.876Z,17.70
2023-04-03T18:42:30.918Z,17.83
2023-04-03T18:45:01.828Z,17.30
2023-04-03T18:47:30.392Z,17.43
2023-04-03T18:49:59.364Z,18.10
2023-04-03T18:52:27.333Z,17.37
2023-04-03T18:57:49.475Z,17.67
2023-04-03T19:00:21.433Z,17.27
2023-04-03T19:02:50.877Z,17.83
2023-04-03T19:05:19.781Z,17.37
2023-04-03T19:07:54.153Z,17.50
2023-04-03T19:10:23.530Z,17.07
2023-04-03T19:12:53.155Z,17.37
2023-04-03T19:15:24.483Z,17.60
2023-04-03T19:17:52.494Z,17.07
2023-04-03T19:20:21.252Z,16.97
2023-04-03T19:22:49.336Z,17.10
2023-04-03T19:25:17.356Z,17.17
2023-04-03T19:27:45.346Z,17.07
2023-04-03T19:30:15.676Z,16.87
2023-04-03T19:32:44.028Z,16.77
2023-04-03T19:35:12.555Z,16.93
2023-04-03T19:37:40.838Z,18.77
2023-04-03T19:40:10.132Z,18.20
2023-04-03T19:42:40.420Z,16.80
2023-04-03T19:45:09.851Z,18.20
2023-04-03T19:47:39.455Z,17.93
2023-04-03T19:50:08.402Z,18.53
2023-04-03T19:52:36.466Z,16.83
2023-04-03T19:55:04.630Z,16.70
2023-04-03T19:57:32.645Z,16.97
2023-04-03T20:00:01.121Z,18.10
2023-04-03T20:02:29.112Z,17.33
2023-04-03T20:04:58.479Z,17.67
2023-04-03T20:07:28.434Z,18.10
2023-04-03T20:09:56.592Z,17.17
2023-04-03T20:12:24.623Z,17.03
2023-04-03T20:14:52.579Z,17.43
2023-04-03T20:17:20.544Z,17.77
2023-04-03T20:19:48.966Z,17.50
2023-04-03T20:22:18.383Z,17.63
2023-04-03T20:24:46.362Z,18.20
2023-04-03T20:27:15.355Z,16.83
2023-04-03T20:29:43.377Z,16.50
2023-04-03T20:32:12.029Z,17.27
2023-04-03T20:34:40.112Z,16.80
2023-04-03T20:37:08.974Z,16.87
2023-04-03T20:39:38.700Z,17.20
2023-04-03T20:42:07.012Z,16.90
2023-04-03T20:44:35.482Z,17.40
2023-04-03T20:47:03.938Z,17.10
2023-04-03T20:49:32.258Z,17.40
2023-04-03T20:52:00.191Z,17.30
2023-04-03T20:54:28.176Z,17.50
2023-04-03T20:56:57.619Z,17.30
2023-04-03T20:59:25.896Z,17.63
2023-04-03T21:01:56.132Z,17.20
2023-04-03T21:04:30.481Z,17.07
2023-04-03T21:07:38.934Z,16.80
2023-04-03T21:10:44.081Z,17.53
2023-04-03T21:13:49.503Z,18.80
2023-04-03T21:16:17.211Z,17.87
2023-04-03T21:19:09.324Z,17.80
2023-04-03T21:21:37.551Z,18.13
2023-04-03T21:24:10.099Z,17.00
2023-04-03T21:26:39.609Z,18.10
2023-04-03T21:29:08.579Z,17.17
2023-04-03T21:31:50.184Z,17.57
2023-04-03T21:34:20.998Z,17.93
2023-04-03T21:36:50.397Z,17.40
2023-04-03T21:39:18.598Z,17.20
2023-04-03T21:41:47.154Z,18.93
2023-04-03T21:44:15.131Z,17.23
2023-04-03T21:46:43.187Z,17.60
2023-04-03T21:49:11.585Z,17.10
2023-04-03T21:51:41.932Z,18.83
2023-04-03T21:54:09.936Z,17.50
2023-04-03T21:56:38.228Z,17.37
2023-04-03T21:59:06.426Z,17.23
2023-04-03T22:01:34.609Z,17.10
2023-04-03T22:04:02.976Z,16.87
2023-04-03T22:06:31.242Z,17.20
2023-04-03T22:09:00.640Z,17.30
2023-04-03T22:11:29.377Z,17.10
2023-04-03T22:13:57.619Z,17.27
2023-04-03T22:16:25.747Z,17.47
2023-04-03T22:18:54.756Z,16.93
2023-04-03T22:21:22.729Z,16.90
2023-04-03T22:23:50.776Z,17.40
2023-04-03T22:26:20.048Z,17.13
2023-04-03T22:28:48.764Z,16.80
2023-04-03T22:31:17.320Z,16.97
2023-04-03T22:33:46.341Z,16.97
2023-04-03T22:36:15.105Z,16.57
2023-04-03T22:38:44.214Z,17.30
2023-04-03T22:41:12.735Z,16.97
2023-04-03T22:43:42.588Z,16.90
2023-04-03T22:46:11.100Z,17.30
2023-04-03T22:48:42.329Z,16.97
2023-04-03T22:51:10.360Z,17.40
2023-04-03T22:53:38.791Z,17.00
2023-04-03T22:56:10.623Z,16.77
2023-04-03T22:58:39.232Z,17.13
2023-04-03T23:01:10.124Z,17.50
2023-04-03T23:03:39.563Z,16.60
2023-04-03T23:06:08.578Z,19.33
2023-04-03T23:08:38.133Z,17.37
2023-04-03T23:11:07.320Z,17.23
2023-04-03T23:13:35.403Z,17.03
2023-04-03T23:21:03.303Z,17.48
2023-04-03T23:23:32.037Z,17.30
2023-04-03T23:26:01.702Z,17.10
2023-04-03T23:28:30.726Z,18.60
2023-04-03T23:31:00.302Z,17.40
2023-04-03T23:33:28.355Z,17.40
2023-04-03T23:35:58.607Z,17.00
2023-04-03T23:38:27.208Z,17.40
2023-04-03T23:40:55.165Z,17.50
2023-04-03T23:43:23.165Z,17.27
2023-04-03T23:45:51.610Z,17.80
2023-04-03T23:48:19.591Z,17.30
2023-04-03T23:50:47.557Z,17.10
2023-04-03T23:53:17.222Z,16.90
2023-04-03T23:55:45.312Z,17.23
2023-04-03T23:58:13.255Z,16.67
